sensor_id;sensor_type;location;lat;lon;timestamp;P1;durP1;ratioP1;P2;durP2;ratioP2
36497;SDS011;22513;51.222;6.480;2022-09-09T00:04:22;4.95;;;2.70;;
36497;SDS011;22513;51.222;6.480;2022-09-09T00:07:01;4.28;;;2.45;;
36497;SDS011;22513;51.222;6.480;2022-09-09T00:09:48;6.10;;;2.63;;
36497;SDS011;22513;51.222;6.480;2022-09-09T00:14:51;4.63;;;2.30;;
36497;SDS011;22513;51.222;6.480;2022-09-09T00:23:00;6.28;;;3.05;;
36497;SDS011;22513;51.222;6.480;2022-09-09T00:25:54;7.03;;;3.40;;
36497;SDS011;22513;51.222;6.480;2022-09-09T00:28:23;15.18;;;6.78;;
36497;SDS011;22513;51.222;6.480;2022-09-09T00:33:19;13.88;;;9.23;;
36497;SDS011;22513;51.222;6.480;2022-09-09T00:35:49;13.93;;;10.70;;
36497;SDS011;22513;51.222;6.480;2022-09-09T00:38:18;17.05;;;12.70;;
36497;SDS011;22513;51.222;6.480;2022-09-09T00:40:58;14.90;;;12.27;;
36497;SDS011;22513;51.222;6.480;2022-09-09T00:43:29;14.57;;;12.27;;
36497;SDS011;22513;51.222;6.480;2022-09-09T00:57:34;11.60;;;9.85;;
36497;SDS011;22513;51.222;6.480;2022-09-09T00:59:47;13.77;;;10.18;;
36497;SDS011;22513;51.222;6.480;2022-09-09T01:05:15;12.82;;;10.02;;
36497;SDS011;22513;51.222;6.480;2022-09-09T01:07:52;13.88;;;10.73;;
36497;SDS011;22513;51.222;6.480;2022-09-09T01:10:52;13.93;;;10.27;;
36497;SDS011;22513;51.222;6.480;2022-09-09T01:13:52;11.18;;;9.75;;
36497;SDS011;22513;51.222;6.480;2022-09-09T01:16:11;11.60;;;8.45;;
36497;SDS011;22513;51.222;6.480;2022-09-09T01:18:43;11.13;;;8.60;;
36497;SDS011;22513;51.222;6.480;2022-09-09T01:26:50;16.10;;;9.55;;
36497;SDS011;22513;51.222;6.480;2022-09-09T01:29:20;11.55;;;8.15;;
36497;SDS011;22513;51.222;6.480;2022-09-09T01:34:22;11.15;;;7.35;;
36497;SDS011;22513;51.222;6.480;2022-09-09T01:36:57;14.25;;;7.00;;
36497;SDS011;22513;51.222;6.480;2022-09-09T01:39:29;14.60;;;6.63;;
36497;SDS011;22513;51.222;6.480;2022-09-09T01:41:55;9.43;;;6.82;;
36497;SDS011;22513;51.222;6.480;2022-09-09T01:44:21;13.15;;;6.43;;
36497;SDS011;22513;51.222;6.480;2022-09-09T01:46:49;9.35;;;6.55;;
36497;SDS011;22513;51.222;6.480;2022-09-09T01:49:14;9.32;;;5.65;;
36497;SDS011;22513;51.222;6.480;2022-09-09T01:51:41;11.07;;;6.03;;
36497;SDS011;22513;51.222;6.480;2022-09-09T01:54:08;13.32;;;5.50;;
36497;SDS011;22513;51.222;6.480;2022-09-09T01:59:24;10.60;;;5.28;;
36497;SDS011;22513;51.222;6.480;2022-09-09T02:02:11;9.80;;;4.88;;
36497;SDS011;22513;51.222;6.480;2022-09-09T02:04:45;13.55;;;5.05;;
36497;SDS011;22513;51.222;6.480;2022-09-09T02:12:42;8.13;;;4.93;;
36497;SDS011;22513;51.222;6.480;2022-09-09T02:15:32;12.50;;;5.10;;
36497;SDS011;22513;51.222;6.480;2022-09-09T02:18:07;10.95;;;4.63;;
36497;SDS011;22513;51.222;6.480;2022-09-09T02:20:37;12.70;;;4.07;;
36497;SDS011;22513;51.222;6.480;2022-09-09T02:23:04;12.23;;;4.05;;
36497;SDS011;22513;51.222;6.480;2022-09-09T02:25:33;7.13;;;4.00;;
36497;SDS011;22513;51.222;6.480;2022-09-09T02:28:00;9.43;;;4.35;;
36497;SDS011;22513;51.222;6.480;2022-09-09T02:30:29;9.85;;;3.75;;
36497;SDS011;22513;51.222;6.480;2022-09-09T02:32:57;6.90;;;3.75;;
36497;SDS011;22513;51.222;6.480;2022-09-09T02:35:27;8.75;;;4.15;;
36497;SDS011;22513;51.222;6.480;2022-09-09T02:37:56;11.30;;;4.57;;
36497;SDS011;22513;51.222;6.480;2022-09-09T02:40:26;8.35;;;3.60;;
36497;SDS011;22513;51.222;6.480;2022-09-09T02:42:51;12.93;;;4.15;;
36497;SDS011;22513;51.222;6.480;2022-09-09T02:45:21;10.00;;;3.45;;
36497;SDS011;22513;51.222;6.480;2022-09-09T02:47:51;10.23;;;4.32;;
36497;SDS011;22513;51.222;6.480;2022-09-09T02:50:25;11.35;;;3.67;;
36497;SDS011;22513;51.222;6.480;2022-09-09T02:58:19;9.85;;;4.10;;
36497;SDS011;22513;51.222;6.480;2022-09-09T03:00:46;9.52;;;3.80;;
36497;SDS011;22513;51.222;6.480;2022-09-09T03:03:13;10.63;;;4.72;;
36497;SDS011;22513;51.222;6.480;2022-09-09T03:05:41;13.82;;;4.10;;
36497;SDS011;22513;51.222;6.480;2022-09-09T03:08:07;7.07;;;3.80;;
36497;SDS011;22513;51.222;6.480;2022-09-09T03:10:34;9.25;;;3.83;;
36497;SDS011;22513;51.222;6.480;2022-09-09T03:13:00;11.93;;;3.97;;
36497;SDS011;22513;51.222;6.480;2022-09-09T03:15:26;7.82;;;3.40;;
36497;SDS011;22513;51.222;6.480;2022-09-09T03:17:55;11.90;;;4.47;;
36497;SDS011;22513;51.222;6.480;2022-09-09T03:20:22;12.77;;;3.97;;
36497;SDS011;22513;51.222;6.480;2022-09-09T03:22:55;7.95;;;3.60;;
36497;SDS011;22513;51.222;6.480;2022-09-09T03:25:21;7.38;;;3.63;;
36497;SDS011;22513;51.222;6.480;2022-09-09T03:27:51;12.00;;;3.78;;
36497;SDS011;22513;51.222;6.480;2022-09-09T03:30:19;8.75;;;4.07;;
36497;SDS011;22513;51.222;6.480;2022-09-09T03:32:49;7.57;;;3.83;;
36497;SDS011;22513;51.222;6.480;2022-09-09T03:35:15;7.72;;;3.78;;
36497;SDS011;22513;51.222;6.480;2022-09-09T03:37:41;11.18;;;4.88;;
36497;SDS011;22513;51.222;6.480;2022-09-09T03:40:07;11.07;;;3.97;;
36497;SDS011;22513;51.222;6.480;2022-09-09T03:42:34;8.80;;;5.10;;
36497;SDS011;22513;51.222;6.480;2022-09-09T03:45:02;10.63;;;4.30;;
36497;SDS011;22513;51.222;6.480;2022-09-09T03:47:31;14.38;;;4.60;;
36497;SDS011;22513;51.222;6.480;2022-09-09T03:49:57;10.02;;;5.13;;
36497;SDS011;22513;51.222;6.480;2022-09-09T03:52:22;10.65;;;5.15;;
36497;SDS011;22513;51.222;6.480;2022-09-09T03:54:50;11.82;;;5.05;;
36497;SDS011;22513;51.222;6.480;2022-09-09T03:57:16;10.82;;;5.80;;
36497;SDS011;22513;51.222;6.480;2022-09-09T03:59:42;12.73;;;5.20;;
36497;SDS011;22513;51.222;6.480;2022-09-09T04:02:08;10.55;;;4.70;;
36497;SDS011;22513;51.222;6.480;2022-09-09T04:04:34;12.02;;;5.03;;
36497;SDS011;22513;51.222;6.480;2022-09-09T04:07:00;17.33;;;5.53;;
36497;SDS011;22513;51.222;6.480;2022-09-09T04:09:25;10.55;;;5.55;;
36497;SDS011;22513;51.222;6.480;2022-09-09T04:11:54;14.80;;;5.28;;
36497;SDS011;22513;51.222;6.480;2022-09-09T04:14:20;10.65;;;5.10;;
36497;SDS011;22513;51.222;6.480;2022-09-09T04:16:46;14.15;;;5.22;;
36497;SDS011;22513;51.222;6.480;2022-09-09T04:19:12;14.52;;;6.18;;
36497;SDS011;22513;51.222;6.480;2022-09-09T04:21:41;11.25;;;6.28;;
36497;SDS011;22513;51.222;6.480;2022-09-09T04:24:07;17.47;;;5.20;;
36497;SDS011;22513;51.222;6.480;2022-09-09T04:26:33;14.43;;;5.55;;
36497;SDS011;22513;51.222;6.480;2022-09-09T04:29:01;18.00;;;6.10;;
36497;SDS011;22513;51.222;6.480;2022-09-09T04:31:27;13.57;;;5.43;;
36497;SDS011;22513;51.222;6.480;2022-09-09T04:33:54;11.07;;;5.85;;
36497;SDS011;22513;51.222;6.480;2022-09-09T04:36:19;14.38;;;5.70;;
36497;SDS011;22513;51.222;6.480;2022-09-09T04:38:46;13.13;;;6.03;;
36497;SDS011;22513;51.222;6.480;2022-09-09T04:41:13;13.10;;;5.38;;
36497;SDS011;22513;51.222;6.480;2022-09-09T04:43:40;13.38;;;5.95;;
36497;SDS011;22513;51.222;6.480;2022-09-09T04:46:06;15.52;;;6.10;;
36497;SDS011;22513;51.222;6.480;2022-09-09T04:48:31;10.85;;;4.57;;
36497;SDS011;22513;51.222;6.480;2022-09-09T04:50:58;12.85;;;4.90;;
36497;SDS011;22513;51.222;6.480;2022-09-09T04:53:29;11.10;;;5.18;;
36497;SDS011;22513;51.222;6.480;2022-09-09T04:58:29;14.77;;;4.95;;
36497;SDS011;22513;51.222;6.480;2022-09-09T05:01:02;10.18;;;4.63;;
36497;SDS011;22513;51.222;6.480;2022-09-09T05:03:28;14.25;;;4.88;;
36497;SDS011;22513;51.222;6.480;2022-09-09T05:05:54;17.70;;;5.28;;
36497;SDS011;22513;51.222;6.480;2022-09-09T05:08:26;12.30;;;4.82;;
36497;SDS011;22513;51.222;6.480;2022-09-09T05:10:52;20.48;;;5.38;;
36497;SDS011;22513;51.222;6.480;2022-09-09T05:13:17;13.05;;;4.70;;
36497;SDS011;22513;51.222;6.480;2022-09-09T05:15:50;12.98;;;4.22;;
36497;SDS011;22513;51.222;6.480;2022-09-09T05:18:17;11.25;;;4.10;;
36497;SDS011;22513;51.222;6.480;2022-09-09T05:20:43;14.27;;;4.30;;
36497;SDS011;22513;51.222;6.480;2022-09-09T05:23:08;10.80;;;5.15;;
36497;SDS011;22513;51.222;6.480;2022-09-09T05:25:36;11.70;;;4.40;;
36497;SDS011;22513;51.222;6.480;2022-09-09T05:28:01;13.18;;;3.88;;
36497;SDS011;22513;51.222;6.480;2022-09-09T05:30:27;14.82;;;4.90;;
36497;SDS011;22513;51.222;6.480;2022-09-09T05:32:55;15.02;;;4.43;;
36497;SDS011;22513;51.222;6.480;2022-09-09T05:35:21;8.88;;;4.43;;
36497;SDS011;22513;51.222;6.480;2022-09-09T05:37:48;11.82;;;4.07;;
36497;SDS011;22513;51.222;6.480;2022-09-09T05:40:14;14.77;;;5.15;;
36497;SDS011;22513;51.222;6.480;2022-09-09T05:42:39;10.23;;;4.82;;
36497;SDS011;22513;51.222;6.480;2022-09-09T05:45:06;12.80;;;4.40;;
36497;SDS011;22513;51.222;6.480;2022-09-09T05:47:33;14.20;;;4.05;;
36497;SDS011;22513;51.222;6.480;2022-09-09T05:49:58;8.05;;;3.83;;
36497;SDS011;22513;51.222;6.480;2022-09-09T05:52:24;9.55;;;3.65;;
36497;SDS011;22513;51.222;6.480;2022-09-09T05:54:51;13.38;;;3.67;;
36497;SDS011;22513;51.222;6.480;2022-09-09T05:57:16;11.45;;;3.92;;
36497;SDS011;22513;51.222;6.480;2022-09-09T05:59:44;11.95;;;4.30;;
36497;SDS011;22513;51.222;6.480;2022-09-09T06:02:10;10.27;;;3.45;;
36497;SDS011;22513;51.222;6.480;2022-09-09T06:04:35;14.73;;;3.38;;
36497;SDS011;22513;51.222;6.480;2022-09-09T06:07:01;9.43;;;3.30;;
36497;SDS011;22513;51.222;6.480;2022-09-09T06:09:26;10.98;;;3.08;;
36497;SDS011;22513;51.222;6.480;2022-09-09T06:11:52;7.55;;;2.78;;
36497;SDS011;22513;51.222;6.480;2022-09-09T06:14:19;9.43;;;3.28;;
36497;SDS011;22513;51.222;6.480;2022-09-09T06:16:45;9.88;;;2.78;;
36497;SDS011;22513;51.222;6.480;2022-09-09T06:19:11;8.00;;;1.90;;
36497;SDS011;22513;51.222;6.480;2022-09-09T06:21:37;7.65;;;2.53;;
36497;SDS011;22513;51.222;6.480;2022-09-09T06:24:03;7.95;;;2.75;;
36497;SDS011;22513;51.222;6.480;2022-09-09T06:26:33;10.35;;;2.53;;
36497;SDS011;22513;51.222;6.480;2022-09-09T06:29:00;10.07;;;2.10;;
36497;SDS011;22513;51.222;6.480;2022-09-09T06:31:28;5.72;;;1.80;;
36497;SDS011;22513;51.222;6.480;2022-09-09T06:33:56;6.88;;;1.60;;
36497;SDS011;22513;51.222;6.480;2022-09-09T06:36:27;7.80;;;1.90;;
36497;SDS011;22513;51.222;6.480;2022-09-09T06:38:54;6.88;;;2.10;;
36497;SDS011;22513;51.222;6.480;2022-09-09T06:41:21;9.30;;;1.30;;
36497;SDS011;22513;51.222;6.480;2022-09-09T06:43:49;5.03;;;1.70;;
36497;SDS011;22513;51.222;6.480;2022-09-09T06:46:18;3.65;;;1.38;;
36497;SDS011;22513;51.222;6.480;2022-09-09T06:48:46;4.80;;;1.42;;
36497;SDS011;22513;51.222;6.480;2022-09-09T06:51:19;5.15;;;1.38;;
36497;SDS011;22513;51.222;6.480;2022-09-09T06:53:52;7.15;;;2.08;;
36497;SDS011;22513;51.222;6.480;2022-09-09T06:56:23;4.90;;;1.50;;
36497;SDS011;22513;51.222;6.480;2022-09-09T06:59:06;6.38;;;1.50;;
36497;SDS011;22513;51.222;6.480;2022-09-09T07:01:35;6.50;;;1.67;;
36497;SDS011;22513;51.222;6.480;2022-09-09T07:04:02;7.45;;;1.85;;
36497;SDS011;22513;51.222;6.480;2022-09-09T07:06:33;2.92;;;1.23;;
36497;SDS011;22513;51.222;6.480;2022-09-09T07:09:01;4.38;;;0.95;;
36497;SDS011;22513;51.222;6.480;2022-09-09T07:11:39;4.80;;;1.33;;
36497;SDS011;22513;51.222;6.480;2022-09-09T07:14:12;7.50;;;1.42;;
36497;SDS011;22513;51.222;6.480;2022-09-09T07:16:39;5.38;;;1.35;;
36497;SDS011;22513;51.222;6.480;2022-09-09T07:19:05;5.32;;;1.20;;
36497;SDS011;22513;51.222;6.480;2022-09-09T07:21:31;6.18;;;1.20;;
36497;SDS011;22513;51.222;6.480;2022-09-09T07:23:58;4.45;;;1.25;;
36497;SDS011;22513;51.222;6.480;2022-09-09T07:26:25;5.57;;;1.25;;
36497;SDS011;22513;51.222;6.480;2022-09-09T07:28:52;8.02;;;2.45;;
36497;SDS011;22513;51.222;6.480;2022-09-09T07:31:20;6.38;;;1.60;;
36497;SDS011;22513;51.222;6.480;2022-09-09T07:33:48;3.72;;;1.20;;
36497;SDS011;22513;51.222;6.480;2022-09-09T07:36:22;7.15;;;1.35;;
36497;SDS011;22513;51.222;6.480;2022-09-09T07:38:53;7.33;;;1.40;;
36497;SDS011;22513;51.222;6.480;2022-09-09T07:41:22;3.75;;;1.10;;
36497;SDS011;22513;51.222;6.480;2022-09-09T07:43:59;6.63;;;1.30;;
36497;SDS011;22513;51.222;6.480;2022-09-09T07:46:30;4.00;;;1.00;;
36497;SDS011;22513;51.222;6.480;2022-09-09T07:48:56;5.82;;;1.52;;
36497;SDS011;22513;51.222;6.480;2022-09-09T07:51:23;5.35;;;2.28;;
36497;SDS011;22513;51.222;6.480;2022-09-09T07:53:54;5.40;;;1.42;;
36497;SDS011;22513;51.222;6.480;2022-09-09T07:56:23;3.08;;;1.38;;
36497;SDS011;22513;51.222;6.480;2022-09-09T07:58:50;7.50;;;1.38;;
36497;SDS011;22513;51.222;6.480;2022-09-09T08:01:18;6.22;;;1.30;;
36497;SDS011;22513;51.222;6.480;2022-09-09T08:03:46;7.68;;;1.38;;
36497;SDS011;22513;51.222;6.480;2022-09-09T08:06:17;7.55;;;1.30;;
36497;SDS011;22513;51.222;6.480;2022-09-09T08:08:43;5.00;;;1.20;;
36497;SDS011;22513;51.222;6.480;2022-09-09T08:11:11;7.65;;;1.00;;
36497;SDS011;22513;51.222;6.480;2022-09-09T08:13:39;4.28;;;1.27;;
36497;SDS011;22513;51.222;6.480;2022-09-09T08:16:06;4.40;;;1.13;;
36497;SDS011;22513;51.222;6.480;2022-09-09T08:18:37;5.60;;;1.25;;
36497;SDS011;22513;51.222;6.480;2022-09-09T08:21:13;7.00;;;1.23;;
36497;SDS011;22513;51.222;6.480;2022-09-09T08:23:42;4.27;;;1.10;;
36497;SDS011;22513;51.222;6.480;2022-09-09T08:26:14;6.87;;;1.27;;
36497;SDS011;22513;51.222;6.480;2022-09-09T08:28:41;3.15;;;1.00;;
36497;SDS011;22513;51.222;6.480;2022-09-09T08:31:11;3.22;;;1.30;;
36497;SDS011;22513;51.222;6.480;2022-09-09T08:33:40;2.60;;;1.08;;
36497;SDS011;22513;51.222;6.480;2022-09-09T08:36:08;4.32;;;1.10;;
36497;SDS011;22513;51.222;6.480;2022-09-09T08:38:35;4.85;;;1.20;;
36497;SDS011;22513;51.222;6.480;2022-09-09T08:43:58;4.18;;;1.08;;
36497;SDS011;22513;51.222;6.480;2022-09-09T08:52:22;3.58;;;1.27;;
36497;SDS011;22513;51.222;6.480;2022-09-09T08:54:52;5.35;;;1.33;;
36497;SDS011;22513;51.222;6.480;2022-09-09T08:59:52;6.05;;;1.20;;
36497;SDS011;22513;51.222;6.480;2022-09-09T09:02:21;5.22;;;1.20;;
36497;SDS011;22513;51.222;6.480;2022-09-09T09:10:00;5.82;;;1.52;;
36497;SDS011;22513;51.222;6.480;2022-09-09T09:12:39;4.65;;;1.20;;
36497;SDS011;22513;51.222;6.480;2022-09-09T09:15:14;5.80;;;1.33;;
36497;SDS011;22513;51.222;6.480;2022-09-09T09:17:44;4.45;;;1.20;;
36497;SDS011;22513;51.222;6.480;2022-09-09T09:20:13;6.35;;;1.20;;
36497;SDS011;22513;51.222;6.480;2022-09-09T09:22:50;4.30;;;1.52;;
36497;SDS011;22513;51.222;6.480;2022-09-09T09:25:20;4.57;;;1.00;;
36497;SDS011;22513;51.222;6.480;2022-09-09T09:30:43;5.20;;;1.50;;
36497;SDS011;22513;51.222;6.480;2022-09-09T09:35:45;5.07;;;0.98;;
36497;SDS011;22513;51.222;6.480;2022-09-09T09:38:17;4.25;;;1.10;;
36497;SDS011;22513;51.222;6.480;2022-09-09T09:40:48;4.35;;;1.10;;
36497;SDS011;22513;51.222;6.480;2022-09-09T09:43:20;2.92;;;1.15;;
36497;SDS011;22513;51.222;6.480;2022-09-09T09:45:49;4.97;;;1.00;;
36497;SDS011;22513;51.222;6.480;2022-09-09T09:48:15;4.63;;;0.90;;
36497;SDS011;22513;51.222;6.480;2022-09-09T09:55:55;7.20;;;1.60;;
36497;SDS011;22513;51.222;6.480;2022-09-09T09:58:27;4.25;;;1.15;;
36497;SDS011;22513;51.222;6.480;2022-09-09T10:00:56;4.28;;;1.02;;
36497;SDS011;22513;51.222;6.480;2022-09-09T10:03:24;2.83;;;0.90;;
36497;SDS011;22513;51.222;6.480;2022-09-09T10:05:55;4.18;;;1.02;;
36497;SDS011;22513;51.222;6.480;2022-09-09T10:08:25;2.67;;;1.00;;
36497;SDS011;22513;51.222;6.480;2022-09-09T10:16:49;4.40;;;1.23;;
36497;SDS011;22513;51.222;6.480;2022-09-09T10:19:34;4.07;;;1.00;;
36497;SDS011;22513;51.222;6.480;2022-09-09T10:32:40;3.75;;;1.00;;
36497;SDS011;22513;51.222;6.480;2022-09-09T10:35:14;3.97;;;1.10;;
36497;SDS011;22513;51.222;6.480;2022-09-09T10:40:46;2.90;;;1.08;;
36497;SDS011;22513;51.222;6.480;2022-09-09T10:46:06;1.70;;;0.80;;
36497;SDS011;22513;51.222;6.480;2022-09-09T11:00:06;4.90;;;1.00;;
36497;SDS011;22513;51.222;6.480;2022-09-09T11:02:56;3.42;;;1.25;;
36497;SDS011;22513;51.222;6.480;2022-09-09T11:05:21;4.47;;;1.20;;
36497;SDS011;22513;51.222;6.480;2022-09-09T11:10:36;3.38;;;1.17;;
36497;SDS011;22513;51.222;6.480;2022-09-09T11:13:15;3.50;;;0.90;;
36497;SDS011;22513;51.222;6.480;2022-09-09T11:15:53;3.10;;;0.80;;
36497;SDS011;22513;51.222;6.480;2022-09-09T11:18:24;3.85;;;1.08;;
36497;SDS011;22513;51.222;6.480;2022-09-09T11:20:55;2.00;;;0.60;;
36497;SDS011;22513;51.222;6.480;2022-09-09T11:24:00;3.45;;;1.00;;
36497;SDS011;22513;51.222;6.480;2022-09-09T11:26:30;4.18;;;1.48;;
36497;SDS011;22513;51.222;6.480;2022-09-09T11:29:03;3.28;;;0.85;;
36497;SDS011;22513;51.222;6.480;2022-09-09T11:42:44;1.58;;;0.60;;
36497;SDS011;22513;51.222;6.480;2022-09-09T11:47:53;2.33;;;0.63;;
36497;SDS011;22513;51.222;6.480;2022-09-09T11:52:49;1.17;;;0.70;;
36497;SDS011;22513;51.222;6.480;2022-09-09T11:57:59;2.47;;;1.02;;
36497;SDS011;22513;51.222;6.480;2022-09-09T12:00:40;1.08;;;0.70;;
36497;SDS011;22513;51.222;6.480;2022-09-09T12:05:53;5.22;;;0.90;;
36497;SDS011;22513;51.222;6.480;2022-09-09T12:08:23;4.55;;;1.23;;
36497;SDS011;22513;51.222;6.480;2022-09-09T12:10:55;4.90;;;1.30;;
36497;SDS011;22513;51.222;6.480;2022-09-09T12:13:24;2.33;;;1.00;;
36497;SDS011;22513;51.222;6.480;2022-09-09T12:15:52;4.63;;;1.50;;
36497;SDS011;22513;51.222;6.480;2022-09-09T12:18:21;6.25;;;1.38;;
36497;SDS011;22513;51.222;6.480;2022-09-09T12:23:36;5.88;;;1.45;;
36497;SDS011;22513;51.222;6.480;2022-09-09T12:31:46;6.97;;;1.88;;
36497;SDS011;22513;51.222;6.480;2022-09-09T12:37:44;5.68;;;1.67;;
36497;SDS011;22513;51.222;6.480;2022-09-09T12:40:22;2.63;;;1.33;;
36497;SDS011;22513;51.222;6.480;2022-09-09T12:42:52;5.55;;;1.73;;
36497;SDS011;22513;51.222;6.480;2022-09-09T12:45:23;7.13;;;2.05;;
36497;SDS011;22513;51.222;6.480;2022-09-09T12:48:04;4.63;;;2.10;;
36497;SDS011;22513;51.222;6.480;2022-09-09T12:50:31;3.80;;;1.55;;
36497;SDS011;22513;51.222;6.480;2022-09-09T12:53:09;5.32;;;1.60;;
36497;SDS011;22513;51.222;6.480;2022-09-09T12:55:36;4.88;;;1.40;;
36497;SDS011;22513;51.222;6.480;2022-09-09T12:58:04;5.95;;;1.58;;
36497;SDS011;22513;51.222;6.480;2022-09-09T13:00:31;3.92;;;1.67;;
36497;SDS011;22513;51.222;6.480;2022-09-09T13:03:13;3.20;;;1.90;;
36497;SDS011;22513;51.222;6.480;2022-09-09T13:08:06;5.43;;;1.60;;
36497;SDS011;22513;51.222;6.480;2022-09-09T13:10:57;5.18;;;1.27;;
36497;SDS011;22513;51.222;6.480;2022-09-09T13:13:34;4.18;;;1.15;;
36497;SDS011;22513;51.222;6.480;2022-09-09T13:16:02;4.22;;;1.30;;
36497;SDS011;22513;51.222;6.480;2022-09-09T13:18:33;6.15;;;1.73;;
36497;SDS011;22513;51.222;6.480;2022-09-09T13:21:00;5.30;;;1.30;;
36497;SDS011;22513;51.222;6.480;2022-09-09T13:23:28;4.03;;;1.20;;
36497;SDS011;22513;51.222;6.480;2022-09-09T13:26:00;4.18;;;1.23;;
36497;SDS011;22513;51.222;6.480;2022-09-09T13:28:28;7.25;;;1.40;;
36497;SDS011;22513;51.222;6.480;2022-09-09T13:36:01;4.80;;;1.25;;
36497;SDS011;22513;51.222;6.480;2022-09-09T13:38:29;3.67;;;1.13;;
36497;SDS011;22513;51.222;6.480;2022-09-09T13:41:01;4.50;;;1.40;;
36497;SDS011;22513;51.222;6.480;2022-09-09T13:43:38;6.22;;;1.80;;
36497;SDS011;22513;51.222;6.480;2022-09-09T13:48:59;3.65;;;0.90;;
36497;SDS011;22513;51.222;6.480;2022-09-09T13:51:33;6.28;;;1.42;;
36497;SDS011;22513;51.222;6.480;2022-09-09T13:54:05;4.45;;;1.20;;
36497;SDS011;22513;51.222;6.480;2022-09-09T13:56:34;4.50;;;1.55;;
36497;SDS011;22513;51.222;6.480;2022-09-09T13:59:00;4.43;;;1.20;;
36497;SDS011;22513;51.222;6.480;2022-09-09T14:01:27;2.70;;;1.48;;
36497;SDS011;22513;51.222;6.480;2022-09-09T14:03:53;1.55;;;0.85;;
36497;SDS011;22513;51.222;6.480;2022-09-09T14:06:19;6.88;;;1.23;;
36497;SDS011;22513;51.222;6.480;2022-09-09T14:08:47;1.83;;;0.90;;
36497;SDS011;22513;51.222;6.480;2022-09-09T14:11:14;3.42;;;1.30;;
36497;SDS011;22513;51.222;6.480;2022-09-09T14:13:39;3.33;;;0.98;;
36497;SDS011;22513;51.222;6.480;2022-09-09T14:16:05;2.38;;;0.90;;
36497;SDS011;22513;51.222;6.480;2022-09-09T14:18:31;3.10;;;1.23;;
36497;SDS011;22513;51.222;6.480;2022-09-09T14:20:57;3.05;;;1.02;;
36497;SDS011;22513;51.222;6.480;2022-09-09T14:23:23;2.53;;;0.98;;
36497;SDS011;22513;51.222;6.480;2022-09-09T14:25:49;3.22;;;0.82;;
36497;SDS011;22513;51.222;6.480;2022-09-09T14:28:15;1.92;;;1.00;;
36497;SDS011;22513;51.222;6.480;2022-09-09T14:30:42;2.60;;;1.02;;
36497;SDS011;22513;51.222;6.480;2022-09-09T14:35:34;1.05;;;0.75;;
36497;SDS011;22513;51.222;6.480;2022-09-09T14:38:01;2.08;;;0.73;;
36497;SDS011;22513;51.222;6.480;2022-09-09T14:40:28;1.92;;;1.00;;
36497;SDS011;22513;51.222;6.480;2022-09-09T14:42:54;2.08;;;0.77;;
36497;SDS011;22513;51.222;6.480;2022-09-09T14:45:21;7.13;;;1.30;;
36497;SDS011;22513;51.222;6.480;2022-09-09T14:47:49;2.33;;;0.85;;
36497;SDS011;22513;51.222;6.480;2022-09-09T14:50:15;2.97;;;1.10;;
36497;SDS011;22513;51.222;6.480;2022-09-09T14:52:41;2.78;;;1.00;;
36497;SDS011;22513;51.222;6.480;2022-09-09T14:55:07;3.45;;;1.48;;
36497;SDS011;22513;51.222;6.480;2022-09-09T14:57:32;3.97;;;0.90;;
36497;SDS011;22513;51.222;6.480;2022-09-09T14:59:59;2.63;;;0.90;;
36497;SDS011;22513;51.222;6.480;2022-09-09T15:02:25;2.90;;;1.08;;
36497;SDS011;22513;51.222;6.480;2022-09-09T15:04:51;0.95;;;0.70;;
36497;SDS011;22513;51.222;6.480;2022-09-09T15:07:17;1.95;;;0.90;;
36497;SDS011;22513;51.222;6.480;2022-09-09T15:09:44;1.83;;;1.17;;
36497;SDS011;22513;51.222;6.480;2022-09-09T15:12:10;1.45;;;0.90;;
36497;SDS011;22513;51.222;6.480;2022-09-09T15:14:35;2.05;;;0.77;;
36497;SDS011;22513;51.222;6.480;2022-09-09T15:17:01;0.75;;;0.60;;
36497;SDS011;22513;51.222;6.480;2022-09-09T15:19:27;0.93;;;0.80;;
36497;SDS011;22513;51.222;6.480;2022-09-09T15:21:52;1.55;;;0.70;;
36497;SDS011;22513;51.222;6.480;2022-09-09T15:24:18;0.70;;;0.50;;
36497;SDS011;22513;51.222;6.480;2022-09-09T15:26:44;1.85;;;1.00;;
36497;SDS011;22513;51.222;6.480;2022-09-09T15:29:10;2.95;;;0.77;;
36497;SDS011;22513;51.222;6.480;2022-09-09T15:31:36;4.00;;;1.05;;
36497;SDS011;22513;51.222;6.480;2022-09-09T15:34:03;0.93;;;0.70;;
36497;SDS011;22513;51.222;6.480;2022-09-09T15:39:02;1.95;;;0.60;;
36497;SDS011;22513;51.222;6.480;2022-09-09T15:41:29;1.60;;;0.70;;
36497;SDS011;22513;51.222;6.480;2022-09-09T15:43:58;5.53;;;0.90;;
36497;SDS011;22513;51.222;6.480;2022-09-09T15:49:08;2.35;;;1.02;;
36497;SDS011;22513;51.222;6.480;2022-09-09T15:51:47;2.05;;;0.65;;
36497;SDS011;22513;51.222;6.480;2022-09-09T15:54:21;3.53;;;1.27;;
36497;SDS011;22513;51.222;6.480;2022-09-09T15:56:53;4.60;;;1.20;;
36497;SDS011;22513;51.222;6.480;2022-09-09T15:59:23;2.00;;;0.90;;
36497;SDS011;22513;51.222;6.480;2022-09-09T16:01:50;3.17;;;0.80;;
36497;SDS011;22513;51.222;6.480;2022-09-09T16:04:19;4.50;;;1.00;;
36497;SDS011;22513;51.222;6.480;2022-09-09T16:06:52;4.05;;;1.17;;
36497;SDS011;22513;51.222;6.480;2022-09-09T16:09:19;3.13;;;0.90;;
36497;SDS011;22513;51.222;6.480;2022-09-09T16:11:45;1.52;;;0.90;;
36497;SDS011;22513;51.222;6.480;2022-09-09T16:14:12;3.42;;;1.30;;
36497;SDS011;22513;51.222;6.480;2022-09-09T16:16:40;1.10;;;0.90;;
36497;SDS011;22513;51.222;6.480;2022-09-09T16:19:07;2.88;;;0.93;;
36497;SDS011;22513;51.222;6.480;2022-09-09T16:21:36;3.50;;;1.52;;
36497;SDS011;22513;51.222;6.480;2022-09-09T16:24:05;3.97;;;1.38;;
36497;SDS011;22513;51.222;6.480;2022-09-09T16:26:33;4.70;;;1.17;;
36497;SDS011;22513;51.222;6.480;2022-09-09T16:29:00;2.38;;;1.20;;
36497;SDS011;22513;51.222;6.480;2022-09-09T16:31:27;4.38;;;1.30;;
36497;SDS011;22513;51.222;6.480;2022-09-09T16:33:54;6.38;;;1.40;;
36497;SDS011;22513;51.222;6.480;2022-09-09T16:36:21;3.70;;;1.10;;
36497;SDS011;22513;51.222;6.480;2022-09-09T16:38:51;7.80;;;1.65;;
36497;SDS011;22513;51.222;6.480;2022-09-09T16:41:19;2.97;;;1.27;;
36497;SDS011;22513;51.222;6.480;2022-09-09T16:43:45;3.65;;;1.60;;
36497;SDS011;22513;51.222;6.480;2022-09-09T16:46:15;4.68;;;1.20;;
36497;SDS011;22513;51.222;6.480;2022-09-09T16:48:43;4.40;;;1.35;;
36497;SDS011;22513;51.222;6.480;2022-09-09T16:51:20;3.20;;;1.30;;
36497;SDS011;22513;51.222;6.480;2022-09-09T16:53:51;2.85;;;1.55;;
36497;SDS011;22513;51.222;6.480;2022-09-09T16:56:24;4.97;;;1.73;;
36497;SDS011;22513;51.222;6.480;2022-09-09T16:58:53;5.10;;;1.65;;
36497;SDS011;22513;51.222;6.480;2022-09-09T17:01:23;6.32;;;1.80;;
36497;SDS011;22513;51.222;6.480;2022-09-09T17:03:56;5.03;;;1.98;;
36497;SDS011;22513;51.222;6.480;2022-09-09T17:06:23;3.95;;;1.85;;
36497;SDS011;22513;51.222;6.480;2022-09-09T17:08:54;5.18;;;1.55;;
36497;SDS011;22513;51.222;6.480;2022-09-09T17:11:24;3.45;;;1.45;;
36497;SDS011;22513;51.222;6.480;2022-09-09T17:13:51;5.20;;;1.92;;
36497;SDS011;22513;51.222;6.480;2022-09-09T17:16:18;5.57;;;1.70;;
36497;SDS011;22513;51.222;6.480;2022-09-09T17:18:46;4.00;;;1.73;;
36497;SDS011;22513;51.222;6.480;2022-09-09T17:21:14;4.18;;;1.80;;
36497;SDS011;22513;51.222;6.480;2022-09-09T17:23:42;3.58;;;1.52;;
36497;SDS011;22513;51.222;6.480;2022-09-09T17:26:08;3.28;;;1.98;;
36497;SDS011;22513;51.222;6.480;2022-09-09T17:28:37;3.58;;;1.83;;
36497;SDS011;22513;51.222;6.480;2022-09-09T17:31:04;4.47;;;2.20;;
36497;SDS011;22513;51.222;6.480;2022-09-09T17:33:34;6.22;;;2.20;;
36497;SDS011;22513;51.222;6.480;2022-09-09T17:36:02;5.55;;;1.95;;
36497;SDS011;22513;51.222;6.480;2022-09-09T17:38:36;6.75;;;2.67;;
36497;SDS011;22513;51.222;6.480;2022-09-09T17:41:09;7.03;;;2.20;;
36497;SDS011;22513;51.222;6.480;2022-09-09T17:43:46;5.68;;;2.45;;